Time;durP1;ratioP1;P1;durP2;ratioP2;P2;SDS_P1;SDS_P2;PMS_P1;PMS_P2;Temp;Humidity;BMP_temperature;BMP_pressure;BME280_temperature;BME280_humidity;BME280_pressure;Samples;Min_cycle;Max_cycle;Signal;HPM_P1;HPM_P2
2022/01/15 00:01:42;;;;;;;0.73;0.60;;;;;;;4.48;100.00;95256.31;4981717;28;20022;-89
2022/01/15 00:04:07;;;;;;;1.42;0.60;;;;;;;4.30;100.00;95254.41;4981685;28;20048;-89
2022/01/15 00:06:33;;;;;;;1.23;0.70;;;;;;;4.24;100.00;95252.63;4998121;28;20053;-89
2022/01/15 00:08:59;;;;;;;1.00;0.60;;;;;;;3.98;100.00;95248.34;4998433;28;20108;-89
2022/01/15 00:11:24;;;;;;;1.27;0.70;;;;;;;3.84;100.00;95247.56;4999000;28;20077;-89
2022/01/15 00:13:57;;;;;;;0.68;0.40;;;;;;;3.92;100.00;95242.16;4997845;28;20053;-89
2022/01/15 00:16:45;;;;;;;2.40;0.70;;;;;;;3.67;100.00;95241.00;5013268;28;20097;-90
2022/01/15 00:19:13;;;;;;;0.77;0.50;;;;;;;4.06;100.00;95238.53;4997954;28;20026;-89
2022/01/15 00:21:39;;;;;;;0.98;0.63;;;;;;;3.96;100.00;95243.34;4981683;28;20022;-89
2022/01/15 00:24:05;;;;;;;0.57;0.40;;;;;;;3.85;100.00;95236.19;4997434;28;20040;-89
2022/01/15 00:26:31;;;;;;;1.55;0.52;;;;;;;4.16;100.00;95229.50;4997768;28;20339;-89
2022/01/15 00:28:57;;;;;;;0.40;0.40;;;;;;;3.99;100.00;95235.16;4981563;28;20033;-89
2022/01/15 00:31:22;;;;;;;2.45;0.63;;;;;;;4.14;100.00;95229.72;4997053;28;20435;-89
2022/01/15 00:33:48;;;;;;;0.63;0.30;;;;;;;4.63;100.00;95232.72;4997142;28;20026;-89
2022/01/15 00:36:14;;;;;;;1.75;0.47;;;;;;;5.54;89.63;95234.28;4997427;28;20105;-89
2022/01/15 00:38:39;;;;;;;0.43;0.35;;;;;;;6.27;81.81;95228.59;4981392;28;20022;-89
2022/01/15 00:41:04;;;;;;;1.10;0.40;;;;;;;6.57;77.39;95233.81;4997628;28;20026;-90
2022/01/15 00:43:30;;;;;;;0.55;0.30;;;;;;;6.32;77.48;95236.53;4981272;28;20141;-89
2022/01/15 00:45:57;;;;;;;0.75;0.40;;;;;;;6.23;77.81;95236.03;4996830;28;20038;-89
2022/01/15 00:48:23;;;;;;;0.75;0.43;;;;;;;6.38;76.42;95227.06;4981315;28;20023;-89
2022/01/15 00:50:48;;;;;;;1.50;0.40;;;;;;;6.21;76.07;95235.47;4997412;28;20033;-92
2022/01/15 00:53:14;;;;;;;1.10;0.45;;;;;;;6.28;75.63;95236.16;4996849;28;20026;-92
2022/01/15 00:55:39;;;;;;;0.65;0.40;;;;;;;6.20;76.66;95226.06;4996405;28;20042;-92
2022/01/15 00:58:05;;;;;;;1.15;0.60;;;;;;;6.41;75.28;95227.41;4980791;28;20023;-89
2022/01/15 01:00:30;;;;;;;1.23;0.50;;;;;;;6.44;74.08;95228.75;4980934;28;20037;-89
2022/01/15 01:03:16;;;;;;;0.70;0.50;;;;;;;6.49;73.48;95224.50;4980917;28;20027;-89
2022/01/15 01:05:42;;;;;;;0.70;0.40;;;;;;;6.34;73.25;95227.50;4980459;28;20030;-89
2022/01/15 01:08:07;;;;;;;1.38;0.50;;;;;;;6.16;74.42;95222.28;4980579;28;20034;-89
2022/01/15 01:10:49;;;;;;;0.63;0.47;;;;;;;6.09;74.27;95224.97;4996822;28;20347;-89
2022/01/15 01:24:26;;;;;;;0.40;0.40;;;;;;;4.91;87.19;95222.97;4996444;28;20140;-89
2022/01/15 01:34:18;;;;;;;1.05;0.45;;;;;;;4.81;92.75;95223.41;4996494;28;20038;-89
2022/01/15 01:36:54;;;;;;;0.55;0.40;;;;;;;4.99;91.51;95221.91;4980707;28;20026;-89
2022/01/15 01:39:21;;;;;;;0.68;0.40;;;;;;;4.79;90.94;95215.06;4996570;28;20060;-89
2022/01/15 01:42:41;;;;;;;0.85;0.40;;;;;;;5.15;87.46;95216.19;4980385;28;20076;-89
2022/01/15 01:44:39;;;;;;;0.40;0.30;;;;;;;4.92;87.10;95214.16;4988899;28;20038;-89
2022/01/15 01:47:11;;;;;;;1.33;0.47;;;;;;;4.86;87.12;95207.22;4996376;28;20049;-89
2022/01/15 01:49:38;;;;;;;0.40;0.30;;;;;;;4.84;88.94;95204.81;4996385;28;20022;-89
2022/01/15 01:52:04;;;;;;;0.30;0.22;;;;;;;5.04;85.92;95206.50;4996364;28;20022;-89
2022/01/15 01:54:30;;;;;;;0.73;0.20;;;;;;;4.52;90.04;95203.03;4996074;28;20029;-89
2022/01/15 01:56:55;;;;;;;0.50;0.30;;;;;;;4.49;91.24;95197.44;4996022;28;20026;-89
2022/01/15 01:59:21;;;;;;;3.25;0.45;;;;;;;4.68;90.18;95198.34;4980321;28;20471;-89
2022/01/15 02:01:46;;;;;;;0.68;0.47;;;;;;;4.84;89.12;95191.84;4996167;28;20026;-89
2022/01/15 02:04:12;;;;;;;0.85;0.35;;;;;;;4.70;88.62;95191.16;4996016;28;20033;-89
2022/01/15 02:06:38;;;;;;;1.52;0.40;;;;;;;4.31;93.80;95182.56;4996149;28;20037;-89
2022/01/15 02:09:07;;;;;;;0.95;0.50;;;;;;;4.37;93.46;95182.53;4997616;28;20026;-89
2022/01/15 02:11:33;;;;;;;0.40;0.40;;;;;;;4.49;92.35;95177.47;4996336;28;20033;-89
2022/01/15 02:13:59;;;;;;;0.77;0.50;;;;;;;4.53;91.10;95177.84;4995582;28;20435;-89
2022/01/15 02:16:24;;;;;;;0.40;0.40;;;;;;;4.60;90.79;95170.03;4980419;28;20335;-89
2022/01/15 02:18:54;;;;;;;0.30;0.25;;;;;;;4.51;91.85;95162.47;4980180;28;20049;-89
2022/01/15 02:23:50;;;;;;;0.20;0.20;;;;;;;4.49;92.85;95161.91;4996024;28;20030;-89
2022/01/15 02:26:26;;;;;;;0.30;0.22;;;;;;;4.31;95.51;95159.22;4980199;28;20077;-89
2022/01/15 02:29:01;;;;;;;0.70;0.30;;;;;;;4.21;97.59;95157.06;4979736;28;20376;-89
2022/01/15 02:31:28;;;;;;;0.35;0.30;;;;;;;3.89;100.00;95164.78;4995993;28;20105;-89
2022/01/15 02:33:56;;;;;;;0.70;0.40;;;;;;;3.70;100.00;95161.25;4979611;28;20108;-89
2022/01/15 02:36:26;;;;;;;5.18;0.45;;;;;;;3.74;100.00;95157.25;4995677;28;20380;-89
2022/01/15 02:38:52;;;;;;;0.55;0.40;;;;;;;3.61;100.00;95153.69;5012733;28;20439;-89
2022/01/15 02:41:25;;;;;;;1.02;0.50;;;;;;;3.59;100.00;95152.31;4979871;28;20030;-89
2022/01/15 02:43:51;;;;;;;0.63;0.47;;;;;;;3.93;100.00;95146.00;4996787;28;20518;-89
2022/01/15 02:48:57;;;;;;;0.63;0.30;;;;;;;5.13;86.64;95139.50;4996187;28;20356;-89
2022/01/15 02:51:25;;;;;;;0.57;0.40;;;;;;;5.30;84.02;95131.94;4995785;28;20030;-89
2022/01/15 02:53:55;;;;;;;1.13;0.32;;;;;;;5.30;82.04;95132.75;5012030;28;20038;-89
2022/01/15 02:56:41;;;;;;;0.47;0.22;;;;;;;5.50;78.05;95132.53;4998514;28;20022;-89
2022/01/15 02:59:09;;;;;;;0.20;0.20;;;;;;;6.17;73.63;95130.19;5015282;28;20038;-89
2022/01/15 03:01:35;;;;;;;0.20;0.20;;;;;;;6.43;71.34;95128.25;5000210;28;20033;-89
2022/01/15 03:04:01;;;;;;;1.40;0.40;;;;;;;6.42;71.10;95131.88;4998917;28;20066;-89
2022/01/15 03:06:27;;;;;;;0.80;0.32;;;;;;;5.99;73.96;95128.41;5015613;28;20343;-89
2022/01/15 03:08:53;;;;;;;0.65;0.30;;;;;;;5.77;73.95;95126.25;5000186;28;20112;-89
2022/01/15 03:11:20;;;;;;;0.47;0.20;;;;;;;5.69;73.93;95132.53;5000096;28;20030;-89
2022/01/15 03:13:46;;;;;;;0.10;0.10;;;;;;;5.85;72.26;95125.97;5014664;28;20030;-89
2022/01/15 03:16:19;;;;;;;0.30;0.28;;;;;;;5.61;72.77;95127.66;4998972;28;20022;-89
2022/01/15 03:18:45;;;;;;;0.43;0.40;;;;;;;5.55;73.41;95121.50;5015067;28;20435;-89
2022/01/15 03:21:11;;;;;;;0.28;0.28;;;;;;;5.61;72.85;95118.03;4982487;28;20403;-89
2022/01/15 03:23:37;;;;;;;0.10;0.10;;;;;;;5.57;72.79;95109.06;4998282;28;20069;-89
2022/01/15 03:26:04;;;;;;;0.35;0.30;;;;;;;5.71;72.00;95111.53;4998829;28;20058;-89
2022/01/15 03:28:29;;;;;;;1.60;0.20;;;;;;;5.90;70.50;95113.09;4998612;28;20436;-88
2022/01/15 03:30:55;;;;;;;0.20;0.20;;;;;;;5.83;70.62;95103.78;4998777;28;20085;-89
2022/01/15 03:33:20;;;;;;;0.80;0.38;;;;;;;5.57;71.87;95101.28;5014886;28;20032;-89
2022/01/15 03:35:46;;;;;;;0.30;0.22;;;;;;;5.61;72.01;95096.44;4998216;28;20026;-89
2022/01/15 03:38:12;;;;;;;0.20;0.20;;;;;;;5.49;74.48;95097.16;4982511;28;20041;-89
2022/01/15 03:40:38;;;;;;;0.50;0.28;;;;;;;5.18;75.32;95103.28;4998635;28;20121;-89
2022/01/15 03:43:04;;;;;;;0.20;0.20;;;;;;;4.70;78.06;95104.66;4982459;28;20030;-89
2022/01/15 03:45:30;;;;;;;0.90;0.17;;;;;;;4.48;81.10;95102.44;4981993;28;20034;-89
2022/01/15 03:47:58;;;;;;;0.20;0.17;;;;;;;4.57;81.66;95095.97;4998199;28;20423;-89
2022/01/15 03:50:25;;;;;;;0.20;0.20;;;;;;;4.52;81.94;95091.44;4998009;28;20026;-89
2022/01/15 03:52:51;;;;;;;0.10;0.10;;;;;;;4.36;82.99;95084.13;4998441;28;20412;-89
2022/01/15 03:55:18;;;;;;;0.20;0.17;;;;;;;4.61;80.20;95083.38;4998449;28;20045;-89
2022/01/15 03:57:43;;;;;;;0.32;0.20;;;;;;;4.79;78.83;95087.84;4998714;28;20412;-89
2022/01/15 04:00:20;;;;;;;0.20;0.20;;;;;;;5.00;75.48;95078.88;4982404;28;20026;-89
2022/01/15 04:02:50;;;;;;;0.20;0.20;;;;;;;5.37;72.10;95071.09;4982098;28;20050;-89
2022/01/15 04:05:16;;;;;;;0.10;0.10;;;;;;;5.20;72.71;95070.06;4997479;28;20026;-89
2022/01/15 04:07:42;;;;;;;0.22;0.22;;;;;;;5.28;73.30;95077.59;4997175;28;20034;-89
2022/01/15 04:10:12;;;;;;;0.35;0.20;;;;;;;5.44;73.35;95075.44;4997917;28;20037;-89
2022/01/15 04:12:38;;;;;;;0.20;0.10;;;;;;;5.34;72.22;95073.34;4982094;28;20037;-89
2022/01/15 04:15:05;;;;;;;0.30;0.25;;;;;;;5.12;72.36;95063.34;4997691;28;20420;-89
2022/01/15 04:17:32;;;;;;;0.68;0.20;;;;;;;4.98;72.63;95065.31;4997999;28;20030;-89
2022/01/15 04:19:58;;;;;;;0.17;0.17;;;;;;;4.95;73.00;95063.13;4998227;28;20439;-89
2022/01/15 04:22:24;;;;;;;0.57;0.20;;;;;;;5.08;73.33;95068.19;4997686;28;20052;-89
2022/01/15 04:24:49;;;;;;;0.20;0.20;;;;;;;4.95;73.65;95065.72;5013584;28;20026;-89
2022/01/15 04:27:15;;;;;;;0.20;0.20;;;;;;;4.97;72.07;95057.72;4981521;28;20030;-89
2022/01/15 04:29:40;;;;;;;0.50;0.20;;;;;;;4.85;73.18;95055.81;4997234;28;20049;-89
2022/01/15 04:32:33;;;;;;;0.10;0.10;;;;;;;5.07;72.62;95056.19;4981565;28;20034;-89
2022/01/15 04:34:59;;;;;;;0.57;0.30;;;;;;;4.75;75.23;95051.09;4998285;28;20026;-89
2022/01/15 04:37:33;;;;;;;0.55;0.30;;;;;;;4.73;74.78;95049.72;4998524;28;20030;-89
2022/01/15 04:39:58;;;;;;;0.60;0.30;;;;;;;4.73;74.45;95057.50;4982371;28;20347;-89
2022/01/15 04:42:26;;;;;;;0.32;0.22;;;;;;;4.84;74.92;95049.03;5005393;28;20037;-89
2022/01/15 04:44:51;;;;;;;0.20;0.20;;;;;;;4.66;74.81;95054.97;5000324;28;20208;-89
2022/01/15 04:47:17;;;;;;;0.75;0.55;;;;;;;4.47;76.43;95054.94;5016930;28;20073;-89
2022/01/15 04:49:42;;;;;;;0.63;0.20;;;;;;;4.39;76.03;95045.59;5016808;28;20087;-89
2022/01/15 04:52:08;;;;;;;0.40;0.30;;;;;;;4.37;78.29;95050.22;5000678;28;20490;-89
2022/01/15 04:54:34;;;;;;;0.22;0.22;;;;;;;4.79;74.28;95054.84;5016968;28;20096;-89
2022/01/15 04:57:00;;;;;;;5.38;0.35;;;;;;;5.08;74.76;95062.22;5015765;28;20057;-89
2022/01/15 04:59:26;;;;;;;0.20;0.20;;;;;;;4.92;72.77;95061.75;4997049;28;20073;-89
2022/01/15 05:01:51;;;;;;;0.47;0.20;;;;;;;4.81;73.28;95057.25;4996932;28;20041;-90
2022/01/15 05:04:16;;;;;;;0.22;0.20;;;;;;;4.90;72.48;95055.97;4996546;28;20415;-89
2022/01/15 05:06:42;;;;;;;0.28;0.20;;;;;;;5.06;71.31;95053.84;4980880;28;20034;-89
2022/01/15 05:09:07;;;;;;;0.20;0.10;;;;;;;5.18;70.34;95054.72;4980894;28;20030;-89
2022/01/15 05:11:46;;;;;;;0.20;0.20;;;;;;;5.14;69.84;95066.53;4996870;28;20072;-89
2022/01/15 05:14:13;;;;;;;0.30;0.20;;;;;;;5.16;69.28;95061.91;4981652;28;20057;-89
2022/01/15 05:16:39;;;;;;;0.80;0.30;;;;;;;5.05;69.68;95067.84;4996968;28;20029;-89
2022/01/15 05:19:05;;;;;;;0.20;0.20;;;;;;;4.87;71.46;95061.59;4996437;28;20125;-89
2022/01/15 05:21:31;;;;;;;0.40;0.20;;;;;;;4.77;71.09;95069.84;4980770;28;20419;-89
2022/01/15 05:23:57;;;;;;;0.43;0.20;;;;;;;4.77;71.51;95064.66;4996144;28;20133;-89
2022/01/15 05:26:22;;;;;;;0.57;0.22;;;;;;;4.81;72.12;95065.84;4996576;28;20120;-89
2022/01/15 05:28:47;;;;;;;1.35;0.50;;;;;;;4.73;73.48;95071.31;5012926;28;20026;-89
2022/01/15 05:31:13;;;;;;;1.33;0.52;;;;;;;4.43;75.66;95074.53;4998018;28;20038;-89
2022/01/15 05:33:38;;;;;;;0.57;0.40;;;;;;;4.20;79.81;95078.44;4996403;28;20026;-89
2022/01/15 05:36:04;;;;;;;0.13;0.13;;;;;;;4.06;82.45;95084.72;4980588;28;20347;-89
2022/01/15 05:38:29;;;;;;;0.57;0.40;;;;;;;4.47;75.38;95088.66;4997679;28;20037;-89
2022/01/15 05:40:55;;;;;;;0.55;0.35;;;;;;;4.69;74.71;95082.31;4980194;28;20026;-89
2022/01/15 05:43:20;;;;;;;0.52;0.30;;;;;;;5.02;72.27;95083.81;4980533;28;20444;-89
2022/01/15 05:45:46;;;;;;;2.40;0.30;;;;;;;4.95;70.64;95082.09;4979960;28;20467;-89
2022/01/15 05:48:11;;;;;;;0.80;0.43;;;;;;;4.92;70.87;95077.34;4996667;28;20034;-89
2022/01/15 05:50:37;;;;;;;0.95;0.52;;;;;;;5.17;69.52;95084.31;4996681;28;20039;-89
2022/01/15 05:53:03;;;;;;;1.70;0.30;;;;;;;5.01;70.69;95090.03;4980618;28;20031;-89
2022/01/15 05:55:28;;;;;;;0.60;0.40;;;;;;;5.03;70.57;95091.41;4980195;28;20074;-89
2022/01/15 05:57:54;;;;;;;1.90;0.35;;;;;;;5.12;69.51;95086.72;4980584;28;20034;-89
2022/01/15 06:00:19;;;;;;;0.47;0.20;;;;;;;5.15;69.62;95086.31;4980391;28;20085;-89
2022/01/15 06:02:45;;;;;;;0.20;0.20;;;;;;;5.15;67.94;95094.09;4980610;28;20034;-89
2022/01/15 06:05:10;;;;;;;0.20;0.20;;;;;;;4.82;69.01;95097.78;4980129;28;20037;-89
2022/01/15 06:07:36;;;;;;;2.08;0.20;;;;;;;4.91;68.05;95093.13;4996699;28;20037;-90
2022/01/15 06:10:02;;;;;;;0.30;0.20;;;;;;;5.11;67.27;95099.94;4995927;28;20041;-91
2022/01/15 06:12:32;;;;;;;0.57;0.30;;;;;;;5.20;66.50;95096.84;4995917;28;20084;-92
2022/01/15 06:14:58;;;;;;;0.30;0.20;;;;;;;5.22;66.38;95097.44;4980125;28;20446;-89
2022/01/15 06:17:24;;;;;;;0.40;0.30;;;;;;;5.01;66.78;95100.41;4996377;28;20039;-89
2022/01/15 06:19:49;;;;;;;0.20;0.20;;;;;;;4.81;67.78;95102.19;4980301;28;20035;-89
2022/01/15 06:22:15;;;;;;;0.40;0.40;;;;;;;4.73;69.36;95110.25;4980077;28;20092;-89
2022/01/15 06:24:40;;;;;;;0.30;0.30;;;;;;;4.59;69.64;95112.16;4980032;28;20415;-87
2022/01/15 06:27:08;;;;;;;0.30;0.30;;;;;;;4.47;71.96;95111.22;4996160;28;20192;-88
2022/01/15 06:29:33;;;;;;;0.52;0.38;;;;;;;4.36;74.42;95103.09;4980606;28;20057;-88
2022/01/15 06:31:59;;;;;;;0.95;0.30;;;;;;;4.15;74.21;95111.19;4983784;28;20030;-88
2022/01/15 06:34:24;;;;;;;0.20;0.20;;;;;;;4.23;72.52;95108.38;4983330;28;20034;-88
2022/01/15 06:36:50;;;;;;;0.30;0.30;;;;;;;4.42;71.43;95111.84;4983669;28;20460;-88
2022/01/15 06:39:15;;;;;;;0.75;0.30;;;;;;;4.67;71.44;95121.47;4999899;28;20161;-87
2022/01/15 06:41:41;;;;;;;1.02;0.45;;;;;;;4.51;71.00;95126.16;4983566;28;20034;-88
2022/01/15 06:44:06;;;;;;;2.78;1.20;;;;;;;4.26;72.23;95122.75;4983175;28;20320;-87
2022/01/15 06:46:32;;;;;;;3.90;1.65;;;;;;;4.18;74.68;95121.19;4999355;28;20351;-87
2022/01/15 06:48:57;;;;;;;2.50;0.93;;;;;;;4.09;75.18;95121.41;4983342;28;20034;-88
2022/01/15 06:51:24;;;;;;;1.50;0.40;;;;;;;4.36;72.78;95126.47;4983396;28;20030;-87
2022/01/15 06:53:49;;;;;;;1.33;0.57;;;;;;;4.48;73.25;95129.16;4999163;28;20041;-89
2022/01/15 06:56:15;;;;;;;2.42;0.98;;;;;;;4.38;73.78;95121.84;4983512;28;20340;-88
2022/01/15 06:58:40;;;;;;;2.20;0.77;;;;;;;4.33;74.04;95124.28;4999186;28;20084;-89
2022/01/15 07:01:06;;;;;;;0.47;0.30;;;;;;;4.52;72.75;95125.19;4983588;28;20117;-88
2022/01/15 07:03:31;;;;;;;0.70;0.43;;;;;;;4.57;74.04;95124.53;4983188;28;20030;-88
2022/01/15 07:05:57;;;;;;;0.30;0.30;;;;;;;4.50;72.92;95129.75;4983175;28;20043;-88
2022/01/15 07:08:22;;;;;;;0.65;0.30;;;;;;;4.57;72.04;95123.75;4999136;28;20030;-87
2022/01/15 07:10:48;;;;;;;0.45;0.30;;;;;;;4.61;72.39;95130.91;4983085;28;20034;-88
2022/01/15 07:13:13;;;;;;;1.13;0.52;;;;;;;4.58;73.27;95126.09;4982759;28;20034;-90
2022/01/15 07:15:39;;;;;;;0.80;0.50;;;;;;;4.57;75.40;95123.75;4998654;28;20146;-90
2022/01/15 07:18:04;;;;;;;0.75;0.43;;;;;;;4.71;75.60;95138.22;4998841;28;20328;-90
2022/01/15 07:20:29;;;;;;;0.82;0.60;;;;;;;4.69;76.76;95136.81;4982661;28;20041;-90
2022/01/15 07:23:30;;;;;;;1.27;0.55;;;;;;;4.70;77.01;95143.59;4982598;28;20034;-91
2022/01/15 07:25:56;;;;;;;1.42;0.60;;;;;;;4.79;73.54;95132.75;4999009;28;20446;-88
2022/01/15 07:28:23;;;;;;;0.65;0.50;;;;;;;4.75;73.41;95136.00;4998715;28;20128;-90
2022/01/15 07:30:48;;;;;;;0.68;0.40;;;;;;;4.77;74.62;95139.19;4998432;28;20033;-90
2022/01/15 07:33:14;;;;;;;1.05;0.60;;;;;;;4.80;77.14;95142.13;4982145;28;20431;-90
2022/01/15 07:35:42;;;;;;;1.58;0.70;;;;;;;4.95;77.82;95138.44;4982499;28;20422;-90
2022/01/15 07:38:08;;;;;;;2.13;1.10;;;;;;;5.09;82.79;95139.13;4998548;28;20339;-89
2022/01/15 07:40:33;;;;;;;1.33;0.80;;;;;;;5.08;84.06;95137.53;4998498;28;20034;-89
2022/01/15 07:42:59;;;;;;;1.02;0.52;;;;;;;5.34;81.96;95143.50;4998346;28;20026;-89
2022/01/15 07:45:24;;;;;;;1.05;0.73;;;;;;;5.36;84.47;95151.88;4981825;28;20044;-87
2022/01/15 07:47:50;;;;;;;1.48;0.43;;;;;;;5.06;88.05;95142.16;4999869;28;20037;-89
2022/01/15 07:50:23;;;;;;;1.60;0.60;;;;;;;5.14;81.47;95154.84;4982064;28;20427;-88
2022/01/15 07:52:52;;;;;;;1.40;0.70;;;;;;;5.18;78.90;95145.66;5009967;28;20034;-89
2022/01/15 07:55:18;;;;;;;1.45;0.77;;;;;;;5.37;80.44;95154.25;5001695;28;20121;-86
2022/01/15 07:57:44;;;;;;;1.10;0.60;;;;;;;5.51;85.44;95148.91;4999076;28;20436;-88
2022/01/15 08:00:13;;;;;;;0.85;0.40;;;;;;;5.56;84.03;95153.47;4999646;28;20030;-89
2022/01/15 08:02:56;;;;;;;0.52;0.40;;;;;;;5.52;85.18;95146.13;5014261;28;20128;-89
2022/01/15 08:05:21;;;;;;;1.10;0.63;;;;;;;5.45;83.63;95152.38;5014019;28;20033;-89
2022/01/15 08:07:47;;;;;;;0.35;0.30;;;;;;;5.49;83.62;95156.13;4999383;28;20348;-89
2022/01/15 08:10:12;;;;;;;0.50;0.40;;;;;;;5.49;85.65;95153.53;5000658;28;20425;-89
2022/01/15 08:12:46;;;;;;;2.13;0.65;;;;;;;5.51;91.04;95148.91;5034254;28;20065;-89
2022/01/15 08:15:12;;;;;;;1.23;0.60;;;;;;;5.60;98.56;95157.25;5030879;28;20026;-89
2022/01/15 08:17:38;;;;;;;1.60;0.63;;;;;;;5.75;93.96;95160.28;5017395;28;20468;-89
2022/01/15 08:20:04;;;;;;;0.43;0.38;;;;;;;5.72;94.10;95154.72;5001201;28;20121;-89
2022/01/15 08:22:29;;;;;;;2.00;0.65;;;;;;;5.72;95.14;95154.72;5017592;28;20041;-89
2022/01/15 08:24:55;;;;;;;0.50;0.38;;;;;;;5.83;100.00;95161.00;5018301;28;20034;-89
2022/01/15 08:27:20;;;;;;;0.90;0.50;;;;;;;5.86;100.00;95160.56;5017294;28;20079;-88
2022/01/15 08:29:45;;;;;;;0.63;0.40;;;;;;;5.90;95.44;95161.72;5033557;28;20116;-89
2022/01/15 08:32:11;;;;;;;0.95;0.43;;;;;;;5.94;94.28;95157.69;5033571;28;20486;-89
2022/01/15 08:34:37;;;;;;;0.90;0.40;;;;;;;5.97;89.27;95153.84;5033177;28;20022;-89
2022/01/15 08:37:03;;;;;;;0.68;0.43;;;;;;;6.06;89.45;95160.34;5033314;28;20133;-89
2022/01/15 08:39:28;;;;;;;1.17;0.50;;;;;;;6.08;89.07;95158.31;5033712;28;20434;-89
2022/01/15 08:41:54;;;;;;;0.80;0.50;;;;;;;6.56;82.85;95161.91;5017165;28;20025;-89
2022/01/15 08:44:23;;;;;;;1.00;0.40;;;;;;;6.58;82.60;95161.72;5016523;28;20064;-88
2022/01/15 08:46:48;;;;;;;1.48;0.50;;;;;;;6.48;88.13;95164.84;5033388;28;20032;-89
2022/01/15 08:49:14;;;;;;;0.85;0.38;;;;;;;6.50;87.76;95157.63;5033579;28;20108;-89
2022/01/15 08:51:39;;;;;;;1.13;0.43;;;;;;;6.51;90.07;95167.78;5032976;28;20045;-89
2022/01/15 08:54:05;;;;;;;0.73;0.50;;;;;;;6.58;90.63;95164.31;5032162;28;20339;-89
2022/01/15 08:56:30;;;;;;;0.47;0.30;;;;;;;6.68;84.54;95171.59;5015391;28;20022;-89
2022/01/15 08:58:55;;;;;;;0.55;0.25;;;;;;;6.68;85.39;95161.16;4997384;28;20367;-89
2022/01/15 09:01:21;;;;;;;0.80;0.50;;;;;;;6.79;85.00;95155.19;4998482;28;20392;-89
2022/01/15 09:03:47;;;;;;;0.85;0.40;;;;;;;6.86;90.68;95163.69;4996586;28;20058;-89
2022/01/15 09:06:12;;;;;;;0.50;0.40;;;;;;;6.83;92.85;95163.38;5006346;28;20474;-89
2022/01/15 09:08:38;;;;;;;0.80;0.40;;;;;;;6.89;95.66;95160.66;5017945;28;20032;-88
2022/01/15 09:11:03;;;;;;;1.48;0.40;;;;;;;6.99;95.59;95160.09;5033189;28;20112;-89
2022/01/15 09:13:29;;;;;;;0.75;0.45;;;;;;;7.10;93.59;95161.13;5033135;28;20041;-89
2022/01/15 09:15:55;;;;;;;1.88;0.40;;;;;;;7.14;91.81;95164.88;5017516;28;20036;-89
2022/01/15 09:18:21;;;;;;;1.13;0.50;;;;;;;7.22;91.55;95161.13;5032748;28;20486;-89
2022/01/15 09:20:47;;;;;;;0.68;0.60;;;;;;;7.20;89.38;95168.38;5017499;28;20091;-88
2022/01/15 09:23:12;;;;;;;0.77;0.57;;;;;;;7.21;90.27;95162.16;5033002;28;20426;-89
2022/01/15 09:25:38;;;;;;;1.02;0.52;;;;;;;7.27;88.03;95163.88;5032169;28;20116;-89
2022/01/15 09:30:48;;;;;;;0.68;0.50;;;;;;;7.44;89.01;95163.19;5030615;28;20037;-89
2022/01/15 09:33:15;;;;;;;0.77;0.40;;;;;;;7.48;86.79;95164.31;5032634;28;20112;-89
2022/01/15 09:35:40;;;;;;;0.90;0.60;;;;;;;7.57;88.79;95165.56;5015842;28;20022;-86
2022/01/15 09:38:06;;;;;;;0.88;0.38;;;;;;;7.62;87.93;95163.06;5015695;28;20044;-86
2022/01/15 09:40:32;;;;;;;0.30;0.28;;;;;;;7.66;88.83;95173.03;5016286;28;20172;-86
2022/01/15 09:42:58;;;;;;;0.55;0.40;;;;;;;7.73;83.52;95161.44;5015911;28;20357;-86
2022/01/15 09:45:24;;;;;;;0.85;0.60;;;;;;;7.71;86.18;95168.72;5015493;28;20045;-86
2022/01/15 09:48:01;;;;;;;1.13;0.50;;;;;;;7.62;84.28;95167.50;5015791;28;20137;-84
2022/01/15 09:50:30;;;;;;;1.20;0.70;;;;;;;7.69;84.24;95162.16;5015897;28;20343;-84
2022/01/15 09:52:56;;;;;;;0.30;0.30;;;;;;;7.82;77.47;95164.53;5032339;28;20382;-86
2022/01/15 09:55:22;;;;;;;2.25;0.30;;;;;;;7.72;77.10;95159.88;5031999;28;20101;-84
2022/01/15 09:57:49;;;;;;;0.57;0.30;;;;;;;7.74;78.13;95155.22;5032159;28;20030;-84
2022/01/15 10:00:17;;;;;;;0.50;0.30;;;;;;;7.80;78.95;95155.34;5016105;28;20029;-84
2022/01/15 10:02:44;;;;;;;0.80;0.50;;;;;;;7.91;77.89;95157.13;5032059;28;20061;-82
2022/01/15 10:05:11;;;;;;;0.35;0.35;;;;;;;8.18;77.05;95152.16;5018187;28;20335;-83
2022/01/15 10:07:36;;;;;;;1.10;0.60;;;;;;;8.04;79.40;95162.09;5020100;28;20030;-83
2022/01/15 10:10:18;;;;;;;1.05;0.63;;;;;;;8.05;77.43;95153.25;5036192;28;20056;-83
2022/01/15 10:12:44;;;;;;;0.70;0.45;;;;;;;8.08;78.14;95146.75;5036113;28;20509;-82
2022/01/15 10:15:11;;;;;;;8.27;3.35;;;;;;;8.15;77.55;95150.03;5019506;28;20420;-83
2022/01/15 10:17:38;;;;;;;1.02;0.80;;;;;;;8.25;74.26;95144.19;5019578;28;20034;-83
2022/01/15 10:20:06;;;;;;;0.70;0.57;;;;;;;8.24;77.72;95145.22;5036149;28;20025;-83
2022/01/15 10:22:32;;;;;;;0.98;0.60;;;;;;;8.35;83.31;95141.78;5003460;28;20056;-83
2022/01/15 10:25:16;;;;;;;0.80;0.60;;;;;;;8.57;81.11;95150.81;5020309;28;20036;-83
2022/01/15 10:27:42;;;;;;;4.00;0.77;;;;;;;8.57;80.43;95142.97;5019614;28;20041;-83
2022/01/15 10:30:26;;;;;;;1.05;0.60;;;;;;;8.54;80.18;95149.44;5019606;28;20021;-83
2022/01/15 10:32:54;;;;;;;1.83;0.63;;;;;;;8.61;73.42;95141.47;5020662;28;20169;-84
2022/01/15 10:35:19;;;;;;;0.82;0.70;;;;;;;8.82;72.79;95142.59;5020049;28;20044;-83
2022/01/15 10:38:04;;;;;;;0.70;0.40;;;;;;;8.81;65.85;95135.78;5035720;28;20042;-83
2022/01/15 10:40:44;;;;;;;2.75;0.75;;;;;;;8.81;73.56;95132.38;5019225;28;20044;-83
2022/01/15 10:43:11;;;;;;;1.05;0.70;;;;;;;8.97;72.09;95142.06;5018911;28;20030;-83
2022/01/15 10:45:54;;;;;;;0.98;0.55;;;;;;;9.03;72.53;95138.50;5019728;28;20136;-83
2022/01/15 10:48:22;;;;;;;1.02;0.70;;;;;;;9.04;71.74;95137.47;5035307;28;20041;-83
2022/01/15 10:50:57;;;;;;;1.35;0.75;;;;;;;9.26;71.76;95136.75;5035616;28;20449;-83
2022/01/15 10:53:36;;;;;;;1.60;1.00;;;;;;;9.35;73.39;95137.13;5018883;28;20390;-83
2022/01/15 10:56:02;;;;;;;1.45;0.90;;;;;;;9.42;75.93;95136.97;5035444;28;20033;-83
2022/01/15 10:58:27;;;;;;;2.17;1.08;;;;;;;9.40;74.32;95134.56;5035404;28;20033;-83
2022/01/15 11:00:53;;;;;;;1.15;0.88;;;;;;;9.55;75.69;95141.06;5019786;28;20029;-83
2022/01/15 11:03:19;;;;;;;2.70;1.20;;;;;;;9.71;70.69;95132.38;5035313;28;20038;-83
2022/01/15 11:05:52;;;;;;;3.00;1.08;;;;;;;9.57;72.83;95141.59;5034542;28;20042;-83
2022/01/15 11:08:17;;;;;;;2.35;1.02;;;;;;;9.52;71.90;95136.31;5018441;28;20155;-83
2022/01/15 11:10:56;;;;;;;1.85;1.05;;;;;;;9.50;68.90;95138.38;5017374;28;20061;-83
2022/01/15 11:13:28;;;;;;;1.83;1.10;;;;;;;9.50;70.32;95138.38;5011718;28;20120;-83
2022/01/15 11:16:04;;;;;;;3.08;1.10;;;;;;;9.66;72.58;95132.31;5033911;28;20021;-83
2022/01/15 11:18:34;;;;;;;1.95;1.17;;;;;;;9.66;73.85;95131.50;5018613;28;20034;-82
2022/01/15 11:21:03;;;;;;;2.17;1.10;;;;;;;9.65;75.69;95119.47;5035015;28;20041;-83
2022/01/15 11:23:30;;;;;;;3.65;1.40;;;;;;;9.67;76.12;95120.81;5018418;28;20057;-83
2022/01/15 11:25:58;;;;;;;4.47;1.35;;;;;;;9.73;75.32;95122.44;5018203;28;20034;-83
2022/01/15 11:28:30;;;;;;;7.47;1.35;;;;;;;9.94;71.72;95121.91;5018136;28;20466;-83
2022/01/15 11:30:58;;;;;;;2.55;1.10;;;;;;;9.99;72.78;95122.75;5034847;28;20037;-83
2022/01/15 11:33:28;;;;;;;1.25;0.80;;;;;;;9.92;72.58;95119.53;5019457;28;20435;-83
2022/01/15 11:35:53;;;;;;;1.80;0.90;;;;;;;9.97;71.53;95119.59;5034005;28;20225;-83
2022/01/15 11:38:40;;;;;;;3.05;0.80;;;;;;;9.98;73.49;95117.78;5034547;28;20507;-83
2022/01/15 11:41:26;;;;;;;1.55;0.98;;;;;;;10.02;72.63;95114.41;5019611;28;20030;-84
2022/01/15 11:43:57;;;;;;;2.08;1.05;;;;;;;10.06;72.70;95114.72;5018415;28;20037;-83
2022/01/15 11:46:44;;;;;;;3.47;0.80;;;;;;;9.98;70.15;95113.31;5018991;28;20096;-83
2022/01/15 11:49:45;;;;;;;1.70;1.00;;;;;;;10.21;68.31;95106.25;5019210;28;20133;-83
2022/01/15 11:52:11;;;;;;;2.15;0.95;;;;;;;10.47;68.69;95103.88;5000852;28;20037;-83
2022/01/15 11:54:38;;;;;;;1.73;1.00;;;;;;;10.36;66.87;95096.97;5018613;28;20084;-83
2022/01/15 11:57:18;;;;;;;3.35;1.00;;;;;;;10.44;63.80;95099.94;5034278;28;20088;-85
2022/01/15 11:59:54;;;;;;;0.98;0.50;;;;;;;10.45;59.76;95101.53;5034043;28;20021;-83
2022/01/15 12:02:40;;;;;;;1.30;0.80;;;;;;;10.55;60.87;95090.34;5017714;28;20034;-83
2022/01/15 12:05:18;;;;;;;2.00;0.70;;;;;;;10.70;57.93;95092.31;4986198;28;20054;-83
2022/01/15 12:07:45;;;;;;;1.98;0.90;;;;;;;10.83;60.83;95087.69;4997809;28;20053;-83
2022/01/15 12:10:15;;;;;;;1.52;0.90;;;;;;;11.03;58.83;95079.16;4998016;28;20443;-83
2022/01/15 12:12:46;;;;;;;2.67;0.88;;;;;;;10.81;59.71;95082.69;4997905;28;20432;-83